TGL9305 LFBZ-LICC
Flight info
| Callsign | TGL9305 |
|---|---|
| Flight time | 2h 5m |
| Altitude | 34000 |
| Route | SOVOS G17 ORTEZ DCT TBO DCT PERDU N862 POSSY M601 GRAUS/N0439F360 M601 BCN N725 ORKUM M603 ELSAG DCT ALG/N0439F370 DCT QUENN DCT RONAB DCT BEKIV/N0352F190 M871 LIBRO |
| Aircraft | A320/M-SDE3FGHIRWY/LB1 |
Departure
| Time | 2026-04-27 09:03 |
|---|---|
| Airport | Biarritz Pays Basque airport (LFBZ) |
Arrival
| Time | 2026-04-27 11:09 |
|---|---|
| Airport | Catania-Fontanarossa Airport (LICC) |
| Time | Latitude | Longitude | Altitude | Speed | Heading |
|---|---|---|---|---|---|
| 2026-04-27 08:36 | 43.47116 | -1.53119 | 256 ft | 0 kts | 14° |
| 2026-04-27 08:47 | 43.47114 | -1.53120 | 256 ft | 3 kts | 14° |
| 2026-04-27 08:48 | 43.47091 | -1.53128 | 257 ft | 3 kts | 14° |
| 2026-04-27 08:48 | 43.47069 | -1.53138 | 257 ft | 3 kts | 24° |
| 2026-04-27 08:48 | 43.47050 | -1.53154 | 257 ft | 3 kts | 51° |
| 2026-04-27 08:48 | 43.47041 | -1.53175 | 257 ft | 1 kts | 70° |
| 2026-04-27 08:49 | 43.47039 | -1.53180 | 257 ft | 0 kts | 70° |
| 2026-04-27 08:53 | 43.47039 | -1.53179 | 257 ft | 0 kts | 70° |
| 2026-04-27 08:53 | 43.47040 | -1.53177 | 257 ft | 0 kts | 70° |
| 2026-04-27 08:54 | 43.47043 | -1.53165 | 257 ft | 3 kts | 71° |
| 2026-04-27 08:54 | 43.47053 | -1.53115 | 256 ft | 7 kts | 84° |
| 2026-04-27 08:54 | 43.47054 | -1.53033 | 256 ft | 10 kts | 89° |
| 2026-04-27 08:54 | 43.47051 | -1.52934 | 255 ft | 11 kts | 107° |
| 2026-04-27 08:55 | 43.47000 | -1.52846 | 255 ft | 12 kts | 117° |
| 2026-04-27 08:55 | 43.46994 | -1.52735 | 254 ft | 10 kts | 88° |
| 2026-04-27 08:55 | 43.46995 | -1.52632 | 253 ft | 12 kts | 89° |
| 2026-04-27 08:55 | 43.46996 | -1.52515 | 252 ft | 13 kts | 89° |
| 2026-04-27 08:56 | 43.46996 | -1.52394 | 251 ft | 13 kts | 90° |
| 2026-04-27 08:56 | 43.46998 | -1.52271 | 250 ft | 13 kts | 90° |
| 2026-04-27 08:56 | 43.46959 | -1.52181 | 250 ft | 11 kts | 158° |
| 2026-04-27 08:56 | 43.46941 | -1.52183 | 250 ft | 0 kts | 193° |
| 2026-04-27 08:59 | 43.46940 | -1.52183 | 250 ft | 2 kts | 193° |
| 2026-04-27 08:59 | 43.46874 | -1.52164 | 249 ft | 13 kts | 144° |
| 2026-04-27 08:59 | 43.46841 | -1.52065 | 249 ft | 11 kts | 97° |
| 2026-04-27 09:00 | 43.46841 | -1.52000 | 249 ft | 10 kts | 86° |
| 2026-04-27 09:00 | 43.46845 | -1.51853 | 247 ft | 14 kts | 88° |
| 2026-04-27 09:00 | 43.46848 | -1.51751 | 246 ft | 17 kts | 88° |
| 2026-04-27 09:00 | 43.46849 | -1.51569 | 245 ft | 20 kts | 89° |
| 2026-04-27 09:01 | 43.46850 | -1.51362 | 244 ft | 23 kts | 89° |
| 2026-04-27 09:01 | 43.46853 | -1.51151 | 242 ft | 18 kts | 88° |
| 2026-04-27 09:01 | 43.46877 | -1.51019 | 242 ft | 12 kts | 63° |
| 2026-04-27 09:01 | 43.46885 | -1.50980 | 242 ft | 0 kts | 79° |
| 2026-04-27 09:02 | 43.46879 | -1.50962 | 242 ft | 8 kts | 123° |
| 2026-04-27 09:02 | 43.46855 | -1.50977 | 241 ft | 3 kts | 264° |
| 2026-04-27 09:02 | 43.46854 | -1.50995 | 242 ft | 1 kts | 265° |
| 2026-04-27 09:02 | 43.46853 | -1.51034 | 242 ft | 17 kts | 267° |
| 2026-04-27 09:03 | 43.46849 | -1.51583 | 245 ft | 93 kts | 268° |
| 2026-04-27 09:03 | 43.46841 | -1.52751 | 267 ft | 147 kts | 273° |
| 2026-04-27 09:03 | 43.46838 | -1.54166 | 841 ft | 147 kts | 272° |
| 2026-04-27 09:03 | 43.46847 | -1.55569 | 1513 ft | 146 kts | 272° |
| 2026-04-27 09:04 | 43.46839 | -1.56990 | 2115 ft | 154 kts | 269° |
| 2026-04-27 09:04 | 43.46811 | -1.58547 | 2442 ft | 175 kts | 268° |
| 2026-04-27 09:04 | 43.46705 | -1.60324 | 2732 ft | 197 kts | 251° |
| 2026-04-27 09:04 | 43.45819 | -1.61825 | 2975 ft | 216 kts | 206° |
| 2026-04-27 09:05 | 43.44307 | -1.62080 | 3384 ft | 229 kts | 161° |
| 2026-04-27 09:05 | 43.43045 | -1.60851 | 4139 ft | 229 kts | 123° |
| 2026-04-27 09:05 | 43.42368 | -1.58854 | 4959 ft | 233 kts | 108° |
| 2026-04-27 09:05 | 43.41939 | -1.56681 | 5727 ft | 237 kts | 104° |
| 2026-04-27 09:06 | 43.41555 | -1.54438 | 6477 ft | 243 kts | 104° |
| 2026-04-27 09:06 | 43.41143 | -1.52152 | 7196 ft | 248 kts | 105° |
| 2026-04-27 09:06 | 43.40689 | -1.49842 | 7951 ft | 252 kts | 106° |
| 2026-04-27 09:06 | 43.40198 | -1.47512 | 8693 ft | 255 kts | 107° |
| 2026-04-27 09:07 | 43.39682 | -1.45186 | 9453 ft | 259 kts | 107° |
| 2026-04-27 09:07 | 43.39379 | -1.42716 | 10127 ft | 269 kts | 91° |
| 2026-04-27 09:07 | 43.39346 | -1.40020 | 10398 ft | 293 kts | 90° |
| 2026-04-27 09:07 | 43.39322 | -1.37103 | 10632 ft | 316 kts | 90° |
| 2026-04-27 09:08 | 43.39295 | -1.34009 | 10966 ft | 334 kts | 90° |
| 2026-04-27 09:08 | 43.39264 | -1.30781 | 11617 ft | 340 kts | 91° |
| 2026-04-27 09:08 | 43.39228 | -1.27508 | 12340 ft | 344 kts | 91° |
| 2026-04-27 09:08 | 43.39188 | -1.24191 | 13071 ft | 348 kts | 91° |
| 2026-04-27 09:09 | 43.39144 | -1.20837 | 13791 ft | 352 kts | 91° |
| 2026-04-27 09:09 | 43.39097 | -1.17448 | 14428 ft | 355 kts | 91° |
| 2026-04-27 09:09 | 43.39050 | -1.14069 | 15023 ft | 359 kts | 91° |
| 2026-04-27 09:09 | 43.39001 | -1.10604 | 15601 ft | 363 kts | 91° |
| 2026-04-27 09:10 | 43.38952 | -1.07103 | 16187 ft | 367 kts | 91° |
| 2026-04-27 09:10 | 43.38902 | -1.03565 | 16774 ft | 371 kts | 91° |
| 2026-04-27 09:10 | 43.38849 | -0.99991 | 17367 ft | 375 kts | 91° |
| 2026-04-27 09:10 | 43.38796 | -0.96417 | 17945 ft | 379 kts | 92° |
| 2026-04-27 09:11 | 43.38739 | -0.92770 | 18518 ft | 383 kts | 92° |
| 2026-04-27 09:11 | 43.38591 | -0.89102 | 19013 ft | 386 kts | 99° |
| 2026-04-27 09:11 | 43.38171 | -0.85443 | 19527 ft | 388 kts | 100° |
| 2026-04-27 09:11 | 43.37738 | -0.81761 | 20040 ft | 391 kts | 100° |
| 2026-04-27 09:12 | 43.37299 | -0.78042 | 20570 ft | 394 kts | 100° |
| 2026-04-27 09:12 | 43.36859 | -0.74312 | 21081 ft | 396 kts | 100° |
| 2026-04-27 09:12 | 43.36508 | -0.70542 | 21588 ft | 399 kts | 94° |
| 2026-04-27 09:12 | 43.36380 | -0.66708 | 22073 ft | 402 kts | 93° |
| 2026-04-27 09:13 | 43.36250 | -0.62903 | 22546 ft | 404 kts | 93° |
| 2026-04-27 09:13 | 43.36114 | -0.59026 | 23026 ft | 407 kts | 93° |
| 2026-04-27 09:13 | 43.35975 | -0.55123 | 23497 ft | 410 kts | 93° |
| 2026-04-27 09:13 | 43.35832 | -0.51194 | 23918 ft | 413 kts | 93° |
| 2026-04-27 09:14 | 43.35686 | -0.47230 | 24303 ft | 415 kts | 94° |
| 2026-04-27 09:14 | 43.35536 | -0.43260 | 24691 ft | 417 kts | 94° |
| 2026-04-27 09:14 | 43.35380 | -0.39252 | 25076 ft | 419 kts | 94° |
| 2026-04-27 09:14 | 43.35224 | -0.35235 | 25458 ft | 421 kts | 94° |
| 2026-04-27 09:15 | 43.35070 | -0.31199 | 25879 ft | 423 kts | 94° |
| 2026-04-27 09:15 | 43.34919 | -0.27202 | 26259 ft | 426 kts | 94° |
| 2026-04-27 09:15 | 43.34763 | -0.23114 | 26636 ft | 428 kts | 94° |
| 2026-04-27 09:15 | 43.34604 | -0.19021 | 27000 ft | 430 kts | 94° |
| 2026-04-27 09:16 | 43.34439 | -0.14897 | 27348 ft | 432 kts | 94° |
| 2026-04-27 09:16 | 43.34271 | -0.10767 | 27702 ft | 434 kts | 94° |
| 2026-04-27 09:16 | 43.34100 | -0.06592 | 28052 ft | 436 kts | 94° |
| 2026-04-27 09:16 | 43.33930 | -0.02412 | 28399 ft | 438 kts | 94° |
| 2026-04-27 09:17 | 43.33724 | 0.01727 | 28734 ft | 439 kts | 99° |
| 2026-04-27 09:17 | 43.32920 | 0.05758 | 29067 ft | 438 kts | 116° |
| 2026-04-27 09:17 | 43.31329 | 0.09313 | 29383 ft | 437 kts | 132° |
| 2026-04-27 09:17 | 43.29076 | 0.12103 | 29691 ft | 435 kts | 148° |
| 2026-04-27 09:18 | 43.26356 | 0.13920 | 29998 ft | 434 kts | 164° |
| 2026-04-27 09:18 | 43.23422 | 0.14647 | 30284 ft | 433 kts | 179° |
| 2026-04-27 09:18 | 43.20388 | 0.14711 | 30517 ft | 435 kts | 180° |
| 2026-04-27 09:18 | 43.17347 | 0.14742 | 30764 ft | 438 kts | 180° |
| 2026-04-27 09:19 | 43.14286 | 0.14764 | 31008 ft | 439 kts | 181° |
| 2026-04-27 09:19 | 43.11216 | 0.14780 | 31256 ft | 441 kts | 181° |
| 2026-04-27 09:19 | 43.08155 | 0.14798 | 31600 ft | 440 kts | 181° |
| 2026-04-27 09:19 | 43.05118 | 0.14821 | 31944 ft | 439 kts | 181° |
| 2026-04-27 09:20 | 43.02059 | 0.14845 | 32269 ft | 439 kts | 180° |
| 2026-04-27 09:20 | 42.99011 | 0.14873 | 32600 ft | 438 kts | 180° |
| 2026-04-27 09:20 | 42.95955 | 0.14904 | 32941 ft | 438 kts | 180° |
| 2026-04-27 09:20 | 42.92912 | 0.14936 | 33281 ft | 437 kts | 180° |
| 2026-04-27 09:21 | 42.89858 | 0.14968 | 33603 ft | 437 kts | 180° |
| 2026-04-27 09:21 | 42.86813 | 0.14997 | 33941 ft | 436 kts | 180° |
| 2026-04-27 09:21 | 42.83762 | 0.15027 | 34169 ft | 436 kts | 180° |
| 2026-04-27 09:22 | 42.77826 | 0.15086 | 34192 ft | 424 kts | 181° |
| 2026-04-27 09:22 | 42.71914 | 0.15138 | 34193 ft | 423 kts | 181° |
| 2026-04-27 09:23 | 42.66059 | 0.15185 | 34188 ft | 423 kts | 181° |
| 2026-04-27 09:23 | 42.60162 | 0.15229 | 34183 ft | 426 kts | 180° |
| 2026-04-27 09:24 | 42.54135 | 0.15727 | 34187 ft | 442 kts | 165° |
| 2026-04-27 09:24 | 42.51288 | 0.17334 | 34178 ft | 448 kts | 149° |
| 2026-04-27 09:24 | 42.48871 | 0.20018 | 34181 ft | 451 kts | 131° |
| 2026-04-27 09:24 | 42.47128 | 0.23553 | 34181 ft | 453 kts | 116° |
| 2026-04-27 09:25 | 42.45779 | 0.27429 | 34180 ft | 455 kts | 116° |
| 2026-04-27 09:25 | 42.43119 | 0.35161 | 34173 ft | 455 kts | 115° |
| 2026-04-27 09:26 | 42.40418 | 0.42947 | 34170 ft | 456 kts | 116° |
| 2026-04-27 09:26 | 42.37720 | 0.50667 | 34177 ft | 456 kts | 116° |
| 2026-04-27 09:27 | 42.35002 | 0.58421 | 34175 ft | 455 kts | 116° |
| 2026-04-27 09:27 | 42.32280 | 0.66168 | 34177 ft | 455 kts | 116° |
| 2026-04-27 09:28 | 42.29613 | 0.73950 | 34175 ft | 455 kts | 109° |
| 2026-04-27 09:28 | 42.27984 | 0.82179 | 34173 ft | 455 kts | 104° |
| 2026-04-27 09:29 | 42.26436 | 0.90500 | 34163 ft | 456 kts | 104° |
| 2026-04-27 09:29 | 42.24898 | 0.98822 | 34170 ft | 456 kts | 104° |
| 2026-04-27 09:30 | 42.23352 | 1.07106 | 34183 ft | 456 kts | 104° |
| 2026-04-27 09:30 | 42.21781 | 1.15429 | 34192 ft | 457 kts | 104° |
| 2026-04-27 09:31 | 42.20213 | 1.23690 | 34204 ft | 456 kts | 104° |
| 2026-04-27 09:31 | 42.18634 | 1.31998 | 34169 ft | 456 kts | 104° |
| 2026-04-27 09:32 | 42.17060 | 1.40294 | 34185 ft | 455 kts | 104° |
| 2026-04-27 09:32 | 42.15481 | 1.48570 | 34182 ft | 455 kts | 104° |
| 2026-04-27 09:33 | 42.13901 | 1.56796 | 34187 ft | 455 kts | 104° |
| 2026-04-27 09:33 | 42.12305 | 1.65054 | 34178 ft | 456 kts | 104° |
| 2026-04-27 09:34 | 42.10972 | 1.71937 | 34176 ft | 456 kts | 104° |
| 2026-04-27 09:34 | 42.09363 | 1.80218 | 34169 ft | 456 kts | 104° |
| 2026-04-27 09:35 | 42.07743 | 1.88497 | 34180 ft | 457 kts | 104° |
| 2026-04-27 09:35 | 42.06132 | 1.96722 | 34186 ft | 457 kts | 104° |
| 2026-04-27 09:36 | 42.04504 | 2.05006 | 34190 ft | 456 kts | 104° |
| 2026-04-27 09:36 | 42.02870 | 2.13263 | 34189 ft | 456 kts | 104° |
| 2026-04-27 09:37 | 42.01225 | 2.21526 | 34181 ft | 456 kts | 104° |
| 2026-04-27 09:37 | 41.99589 | 2.29729 | 34184 ft | 456 kts | 104° |
| 2026-04-27 09:38 | 41.97944 | 2.37974 | 34188 ft | 455 kts | 104° |
| 2026-04-27 09:38 | 41.96286 | 2.46201 | 34182 ft | 455 kts | 104° |
| 2026-04-27 09:39 | 41.94640 | 2.54362 | 34176 ft | 454 kts | 104° |
| 2026-04-27 09:39 | 41.92979 | 2.62580 | 34177 ft | 454 kts | 104° |
| 2026-04-27 09:40 | 41.91308 | 2.70774 | 34182 ft | 454 kts | 104° |
| 2026-04-27 09:40 | 41.89633 | 2.78958 | 34180 ft | 454 kts | 104° |
| 2026-04-27 09:41 | 41.87970 | 2.87083 | 34174 ft | 454 kts | 104° |
| 2026-04-27 09:41 | 41.86286 | 2.95260 | 34174 ft | 454 kts | 104° |
| 2026-04-27 09:42 | 41.84593 | 3.03432 | 34168 ft | 454 kts | 104° |
| 2026-04-27 09:42 | 41.82902 | 3.11541 | 34177 ft | 454 kts | 103° |
| 2026-04-27 09:43 | 41.81206 | 3.19708 | 34176 ft | 454 kts | 103° |
| 2026-04-27 09:43 | 41.79500 | 3.27874 | 34169 ft | 454 kts | 103° |
| 2026-04-27 09:44 | 41.77800 | 3.35972 | 34167 ft | 454 kts | 103° |
| 2026-04-27 09:44 | 41.76083 | 3.44136 | 34167 ft | 454 kts | 103° |
| 2026-04-27 09:45 | 41.74361 | 3.52281 | 34166 ft | 454 kts | 103° |
| 2026-04-27 09:45 | 41.72637 | 3.60379 | 34169 ft | 454 kts | 104° |
| 2026-04-27 09:46 | 41.70896 | 3.68515 | 34157 ft | 454 kts | 104° |
| 2026-04-27 09:46 | 41.69157 | 3.76653 | 34165 ft | 454 kts | 104° |
| 2026-04-27 09:47 | 41.67414 | 3.84778 | 34176 ft | 454 kts | 103° |
| 2026-04-27 09:47 | 41.65674 | 3.92844 | 34164 ft | 454 kts | 104° |
| 2026-04-27 09:48 | 41.63916 | 4.00965 | 34165 ft | 454 kts | 104° |
| 2026-04-27 09:48 | 41.62146 | 4.09094 | 34155 ft | 454 kts | 104° |
| 2026-04-27 09:49 | 41.60369 | 4.17208 | 34158 ft | 454 kts | 104° |
| 2026-04-27 09:49 | 41.58602 | 4.25285 | 34184 ft | 454 kts | 103° |
| 2026-04-27 09:50 | 41.56826 | 4.33415 | 34170 ft | 455 kts | 103° |
| 2026-04-27 09:50 | 41.55048 | 4.41468 | 34175 ft | 455 kts | 104° |
| 2026-04-27 09:51 | 41.53248 | 4.49584 | 34174 ft | 455 kts | 104° |
| 2026-04-27 09:51 | 41.51441 | 4.57689 | 34182 ft | 455 kts | 104° |
| 2026-04-27 09:52 | 41.49637 | 4.65754 | 34181 ft | 455 kts | 104° |
| 2026-04-27 09:52 | 41.47824 | 4.73851 | 34175 ft | 454 kts | 104° |
| 2026-04-27 09:53 | 41.46022 | 4.81890 | 34171 ft | 454 kts | 104° |
| 2026-04-27 09:53 | 41.44203 | 4.89969 | 34171 ft | 454 kts | 104° |
| 2026-04-27 09:54 | 41.42375 | 4.98015 | 34178 ft | 455 kts | 104° |
| 2026-04-27 09:54 | 41.40534 | 5.06116 | 34169 ft | 456 kts | 104° |
| 2026-04-27 09:55 | 41.38699 | 5.14171 | 34171 ft | 456 kts | 104° |
| 2026-04-27 09:55 | 41.35916 | 5.26311 | 34172 ft | 457 kts | 104° |
| 2026-04-27 09:56 | 41.34065 | 5.34364 | 34185 ft | 457 kts | 104° |
| 2026-04-27 09:56 | 41.32185 | 5.42525 | 34179 ft | 457 kts | 104° |
| 2026-04-27 09:57 | 41.30315 | 5.50575 | 34179 ft | 457 kts | 104° |
| 2026-04-27 09:57 | 41.28426 | 5.58668 | 34178 ft | 457 kts | 104° |
| 2026-04-27 09:58 | 41.26539 | 5.66765 | 34182 ft | 458 kts | 104° |
| 2026-04-27 09:58 | 41.24657 | 5.74811 | 34181 ft | 458 kts | 105° |
| 2026-04-27 09:59 | 41.22756 | 5.82919 | 34169 ft | 459 kts | 105° |
| 2026-04-27 09:59 | 41.20837 | 5.91043 | 34170 ft | 460 kts | 105° |
| 2026-04-27 10:00 | 41.18908 | 5.99165 | 34169 ft | 460 kts | 105° |
| 2026-04-27 10:00 | 41.16973 | 6.07270 | 34171 ft | 460 kts | 105° |
| 2026-04-27 10:01 | 41.15043 | 6.15372 | 34171 ft | 461 kts | 106° |
| 2026-04-27 10:01 | 41.13114 | 6.23461 | 34165 ft | 462 kts | 106° |
| 2026-04-27 10:02 | 41.11165 | 6.31588 | 34165 ft | 462 kts | 107° |
| 2026-04-27 10:02 | 41.09214 | 6.39690 | 34168 ft | 463 kts | 107° |
| 2026-04-27 10:03 | 41.07244 | 6.47834 | 34177 ft | 463 kts | 107° |
| 2026-04-27 10:03 | 41.05259 | 6.55996 | 34173 ft | 464 kts | 107° |
| 2026-04-27 10:04 | 41.03278 | 6.64105 | 34173 ft | 464 kts | 107° |
| 2026-04-27 10:04 | 41.01284 | 6.72267 | 34178 ft | 465 kts | 107° |
| 2026-04-27 10:05 | 40.99285 | 6.80417 | 34181 ft | 465 kts | 108° |
| 2026-04-27 10:05 | 40.97288 | 6.88535 | 34190 ft | 465 kts | 108° |
| 2026-04-27 10:06 | 40.95275 | 6.96683 | 34191 ft | 465 kts | 108° |
| 2026-04-27 10:06 | 40.93593 | 7.03450 | 34196 ft | 465 kts | 108° |
| 2026-04-27 10:07 | 40.91566 | 7.11598 | 34197 ft | 465 kts | 108° |
| 2026-04-27 10:07 | 40.89541 | 7.19712 | 34185 ft | 465 kts | 109° |
| 2026-04-27 10:08 | 40.87506 | 7.27835 | 34191 ft | 464 kts | 109° |
| 2026-04-27 10:08 | 40.85487 | 7.35908 | 34186 ft | 464 kts | 109° |
| 2026-04-27 10:09 | 40.83451 | 7.44019 | 34180 ft | 464 kts | 109° |
| 2026-04-27 10:09 | 40.81393 | 7.52118 | 34182 ft | 464 kts | 109° |
| 2026-04-27 10:10 | 40.79353 | 7.60145 | 34179 ft | 463 kts | 109° |
| 2026-04-27 10:10 | 40.77293 | 7.68234 | 34179 ft | 463 kts | 109° |
| 2026-04-27 10:11 | 40.75249 | 7.76238 | 34186 ft | 462 kts | 109° |
| 2026-04-27 10:11 | 40.73189 | 7.84285 | 34180 ft | 462 kts | 110° |
| 2026-04-27 10:12 | 40.71117 | 7.92327 | 34171 ft | 462 kts | 110° |
| 2026-04-27 10:12 | 40.69061 | 8.00294 | 34159 ft | 461 kts | 110° |
| 2026-04-27 10:13 | 40.66912 | 8.08268 | 34149 ft | 460 kts | 117° |
| 2026-04-27 10:13 | 40.63711 | 8.15550 | 34143 ft | 458 kts | 122° |
| 2026-04-27 10:14 | 40.60433 | 8.22704 | 34136 ft | 458 kts | 122° |
| 2026-04-27 10:14 | 40.57120 | 8.29888 | 34137 ft | 457 kts | 122° |
| 2026-04-27 10:15 | 40.53825 | 8.37011 | 34137 ft | 457 kts | 122° |
| 2026-04-27 10:15 | 40.50530 | 8.44153 | 34171 ft | 456 kts | 122° |
| 2026-04-27 10:16 | 40.47227 | 8.51303 | 34168 ft | 456 kts | 122° |
| 2026-04-27 10:16 | 40.43925 | 8.58418 | 34168 ft | 456 kts | 122° |
| 2026-04-27 10:17 | 40.40616 | 8.65529 | 34165 ft | 455 kts | 122° |
| 2026-04-27 10:17 | 40.37327 | 8.72587 | 34166 ft | 455 kts | 122° |
| 2026-04-27 10:18 | 40.34017 | 8.79675 | 34160 ft | 455 kts | 122° |
| 2026-04-27 10:18 | 40.30708 | 8.86758 | 34158 ft | 455 kts | 122° |
| 2026-04-27 10:19 | 40.27384 | 8.93841 | 34156 ft | 455 kts | 123° |
| 2026-04-27 10:19 | 40.24083 | 9.00858 | 34158 ft | 455 kts | 123° |
| 2026-04-27 10:20 | 40.20750 | 9.07921 | 34153 ft | 454 kts | 123° |
| 2026-04-27 10:20 | 40.17435 | 9.14927 | 34152 ft | 454 kts | 122° |
| 2026-04-27 10:21 | 40.14107 | 9.21956 | 34152 ft | 454 kts | 122° |
| 2026-04-27 10:21 | 40.10773 | 9.28991 | 34155 ft | 454 kts | 122° |
| 2026-04-27 10:22 | 40.07438 | 9.36010 | 34160 ft | 454 kts | 122° |
| 2026-04-27 10:22 | 40.04124 | 9.42966 | 34170 ft | 453 kts | 123° |
| 2026-04-27 10:23 | 40.00776 | 9.49965 | 34166 ft | 453 kts | 123° |
| 2026-04-27 10:23 | 39.97429 | 9.56935 | 34171 ft | 453 kts | 123° |
| 2026-04-27 10:24 | 39.94096 | 9.63861 | 34172 ft | 453 kts | 123° |
| 2026-04-27 10:24 | 39.90760 | 9.70815 | 34175 ft | 452 kts | 123° |
| 2026-04-27 10:25 | 39.87408 | 9.77770 | 34173 ft | 452 kts | 123° |
| 2026-04-27 10:25 | 39.84047 | 9.84721 | 34176 ft | 452 kts | 123° |
| 2026-04-27 10:26 | 39.80711 | 9.91624 | 34172 ft | 452 kts | 123° |
| 2026-04-27 10:26 | 39.77352 | 9.98553 | 34177 ft | 452 kts | 123° |
| 2026-04-27 10:27 | 39.73991 | 10.05463 | 34176 ft | 452 kts | 123° |
| 2026-04-27 10:27 | 39.70645 | 10.12334 | 34178 ft | 452 kts | 123° |
| 2026-04-27 10:28 | 39.67272 | 10.19244 | 34175 ft | 452 kts | 123° |
| 2026-04-27 10:28 | 39.63890 | 10.26145 | 34173 ft | 452 kts | 123° |
| 2026-04-27 10:29 | 39.60523 | 10.32999 | 34176 ft | 453 kts | 123° |
| 2026-04-27 10:29 | 39.57138 | 10.39885 | 34177 ft | 453 kts | 123° |
| 2026-04-27 10:30 | 39.53735 | 10.46795 | 34167 ft | 453 kts | 123° |
| 2026-04-27 10:30 | 39.50329 | 10.53688 | 34171 ft | 453 kts | 123° |
| 2026-04-27 10:31 | 39.46929 | 10.60560 | 34166 ft | 453 kts | 123° |
| 2026-04-27 10:31 | 39.43534 | 10.67412 | 34163 ft | 454 kts | 123° |
| 2026-04-27 10:32 | 39.40112 | 10.74295 | 34167 ft | 455 kts | 123° |
| 2026-04-27 10:32 | 39.36684 | 10.81187 | 34166 ft | 455 kts | 123° |
| 2026-04-27 10:33 | 39.33274 | 10.88029 | 34171 ft | 455 kts | 124° |
| 2026-04-27 10:33 | 39.29821 | 10.94927 | 34173 ft | 455 kts | 124° |
| 2026-04-27 10:34 | 39.26370 | 11.01805 | 34169 ft | 456 kts | 124° |
| 2026-04-27 10:34 | 39.22926 | 11.08650 | 34170 ft | 456 kts | 124° |
| 2026-04-27 10:35 | 39.19459 | 11.15532 | 34171 ft | 456 kts | 124° |
| 2026-04-27 10:35 | 39.15996 | 11.22406 | 34173 ft | 456 kts | 124° |
| 2026-04-27 10:36 | 39.12547 | 11.29232 | 34174 ft | 457 kts | 124° |
| 2026-04-27 10:36 | 39.09056 | 11.36108 | 34177 ft | 457 kts | 124° |
| 2026-04-27 10:37 | 39.05571 | 11.42974 | 34171 ft | 458 kts | 124° |
| 2026-04-27 10:37 | 39.02092 | 11.49806 | 34173 ft | 458 kts | 124° |
| 2026-04-27 10:38 | 38.98594 | 11.56675 | 34168 ft | 458 kts | 124° |
| 2026-04-27 10:38 | 38.95093 | 11.63529 | 34167 ft | 458 kts | 124° |
| 2026-04-27 10:39 | 38.91602 | 11.70343 | 34164 ft | 458 kts | 124° |
| 2026-04-27 10:39 | 38.88078 | 11.77196 | 34160 ft | 459 kts | 124° |
| 2026-04-27 10:40 | 38.84548 | 11.84036 | 34164 ft | 460 kts | 124° |
| 2026-04-27 10:40 | 38.81032 | 11.90852 | 34163 ft | 460 kts | 124° |
| 2026-04-27 10:41 | 38.78064 | 11.96601 | 34165 ft | 460 kts | 124° |
| 2026-04-27 10:41 | 38.74553 | 12.03408 | 34169 ft | 461 kts | 124° |
| 2026-04-27 10:42 | 38.70999 | 12.10261 | 34164 ft | 461 kts | 125° |
| 2026-04-27 10:42 | 38.67431 | 12.17113 | 34168 ft | 462 kts | 125° |
| 2026-04-27 10:43 | 38.63863 | 12.23971 | 34172 ft | 462 kts | 125° |
| 2026-04-27 10:43 | 38.60309 | 12.30797 | 34175 ft | 462 kts | 125° |
| 2026-04-27 10:44 | 38.56723 | 12.37653 | 34178 ft | 462 kts | 125° |
| 2026-04-27 10:44 | 38.53156 | 12.44439 | 34172 ft | 462 kts | 125° |
| 2026-04-27 10:45 | 38.49568 | 12.51265 | 34168 ft | 462 kts | 125° |
| 2026-04-27 10:45 | 38.45971 | 12.58095 | 34169 ft | 463 kts | 125° |
| 2026-04-27 10:46 | 38.42373 | 12.64936 | 34159 ft | 463 kts | 125° |
| 2026-04-27 10:46 | 38.38785 | 12.71736 | 34159 ft | 464 kts | 126° |
| 2026-04-27 10:47 | 38.35157 | 12.78581 | 34159 ft | 465 kts | 126° |
| 2026-04-27 10:47 | 38.31534 | 12.85408 | 34160 ft | 465 kts | 126° |
| 2026-04-27 10:48 | 38.27912 | 12.92234 | 34160 ft | 465 kts | 126° |
| 2026-04-27 10:48 | 38.24283 | 12.99038 | 34158 ft | 465 kts | 126° |
| 2026-04-27 10:49 | 38.20645 | 13.05848 | 34160 ft | 465 kts | 126° |
| 2026-04-27 10:49 | 38.17029 | 13.12621 | 34160 ft | 465 kts | 126° |
| 2026-04-27 10:50 | 38.15206 | 13.16029 | 33903 ft | 466 kts | 126° |
| 2026-04-27 10:50 | 38.13376 | 13.19441 | 33200 ft | 468 kts | 126° |
| 2026-04-27 10:50 | 38.11515 | 13.22894 | 32042 ft | 477 kts | 126° |
| 2026-04-27 10:50 | 38.09622 | 13.26400 | 31036 ft | 481 kts | 126° |
| 2026-04-27 10:51 | 38.07712 | 13.29934 | 29819 ft | 488 kts | 126° |
| 2026-04-27 10:51 | 38.05817 | 13.33450 | 28990 ft | 487 kts | 126° |
| 2026-04-27 10:51 | 38.03917 | 13.36979 | 28368 ft | 479 kts | 126° |
| 2026-04-27 10:51 | 38.02036 | 13.40467 | 27608 ft | 475 kts | 126° |
| 2026-04-27 10:52 | 38.00180 | 13.43904 | 26912 ft | 470 kts | 125° |
| 2026-04-27 10:52 | 37.98335 | 13.47315 | 26212 ft | 466 kts | 125° |
| 2026-04-27 10:52 | 37.96502 | 13.50699 | 25508 ft | 464 kts | 125° |
| 2026-04-27 10:52 | 37.94697 | 13.54027 | 24830 ft | 461 kts | 125° |
| 2026-04-27 10:53 | 37.92882 | 13.57370 | 24146 ft | 459 kts | 125° |
| 2026-04-27 10:53 | 37.89275 | 13.63998 | 22756 ft | 451 kts | 125° |
| 2026-04-27 10:53 | 37.87656 | 13.67362 | 22205 ft | 445 kts | 117° |
| 2026-04-27 10:54 | 37.86449 | 13.70953 | 21656 ft | 439 kts | 111° |
| 2026-04-27 10:54 | 37.85342 | 13.74530 | 21133 ft | 432 kts | 111° |
| 2026-04-27 10:54 | 37.84245 | 13.78048 | 20630 ft | 426 kts | 111° |
| 2026-04-27 10:54 | 37.83173 | 13.81467 | 20137 ft | 421 kts | 112° |
| 2026-04-27 10:55 | 37.82095 | 13.84891 | 19664 ft | 415 kts | 112° |
| 2026-04-27 10:55 | 37.81027 | 13.88271 | 19192 ft | 411 kts | 112° |
| 2026-04-27 10:55 | 37.79967 | 13.91624 | 18714 ft | 408 kts | 112° |
| 2026-04-27 10:55 | 37.78912 | 13.94957 | 18189 ft | 405 kts | 112° |
| 2026-04-27 10:56 | 37.77880 | 13.98217 | 17698 ft | 401 kts | 112° |
| 2026-04-27 10:56 | 37.76848 | 14.01480 | 17193 ft | 397 kts | 112° |
| 2026-04-27 10:56 | 37.75831 | 14.04723 | 16713 ft | 394 kts | 111° |
| 2026-04-27 10:56 | 37.74825 | 14.07945 | 16195 ft | 392 kts | 111° |
| 2026-04-27 10:57 | 37.73828 | 14.11146 | 15684 ft | 390 kts | 111° |
| 2026-04-27 10:57 | 37.72834 | 14.14333 | 15173 ft | 389 kts | 112° |
| 2026-04-27 10:57 | 37.71838 | 14.17513 | 14655 ft | 388 kts | 112° |
| 2026-04-27 10:57 | 37.70845 | 14.20679 | 14138 ft | 387 kts | 112° |
| 2026-04-27 10:58 | 37.69865 | 14.23802 | 13568 ft | 387 kts | 112° |
| 2026-04-27 10:58 | 37.68872 | 14.26962 | 13029 ft | 385 kts | 112° |
| 2026-04-27 10:58 | 37.67887 | 14.30096 | 12485 ft | 383 kts | 112° |
| 2026-04-27 10:58 | 37.66906 | 14.33211 | 11936 ft | 379 kts | 112° |
| 2026-04-27 10:59 | 37.65929 | 14.36304 | 11375 ft | 377 kts | 112° |
| 2026-04-27 10:59 | 37.64959 | 14.39357 | 10827 ft | 373 kts | 112° |
| 2026-04-27 10:59 | 37.64008 | 14.42348 | 10665 ft | 359 kts | 112° |
| 2026-04-27 11:00 | 37.62225 | 14.47946 | 10421 ft | 332 kts | 112° |
| 2026-04-27 11:00 | 37.61379 | 14.50614 | 10290 ft | 321 kts | 111° |
| 2026-04-27 11:00 | 37.60564 | 14.53187 | 10158 ft | 311 kts | 111° |
| 2026-04-27 11:00 | 37.59764 | 14.55702 | 9855 ft | 307 kts | 111° |
| 2026-04-27 11:01 | 37.58972 | 14.58194 | 9510 ft | 304 kts | 111° |
| 2026-04-27 11:01 | 37.58071 | 14.60581 | 9139 ft | 301 kts | 126° |
| 2026-04-27 11:01 | 37.56560 | 14.62353 | 8889 ft | 295 kts | 150° |
| 2026-04-27 11:01 | 37.54646 | 14.63183 | 8393 ft | 293 kts | 175° |
| 2026-04-27 11:02 | 37.52612 | 14.62996 | 7689 ft | 300 kts | 192° |
| 2026-04-27 11:02 | 37.50541 | 14.62577 | 7249 ft | 301 kts | 188° |
| 2026-04-27 11:02 | 37.48467 | 14.62334 | 6857 ft | 298 kts | 182° |
| 2026-04-27 11:02 | 37.46445 | 14.62828 | 6364 ft | 298 kts | 155° |
| 2026-04-27 11:03 | 37.44683 | 14.64185 | 5857 ft | 298 kts | 138° |
| 2026-04-27 11:03 | 37.43567 | 14.66348 | 5350 ft | 298 kts | 107° |
| 2026-04-27 11:03 | 37.43421 | 14.68922 | 5029 ft | 292 kts | 83° |
| 2026-04-27 11:03 | 37.43689 | 14.71395 | 4903 ft | 278 kts | 85° |
| 2026-04-27 11:04 | 37.43866 | 14.73734 | 4793 ft | 264 kts | 85° |
| 2026-04-27 11:04 | 37.44051 | 14.76004 | 4526 ft | 258 kts | 84° |
| 2026-04-27 11:04 | 37.44245 | 14.78232 | 4199 ft | 252 kts | 85° |
| 2026-04-27 11:04 | 37.44432 | 14.80374 | 3883 ft | 240 kts | 85° |
| 2026-04-27 11:05 | 37.44611 | 14.82430 | 3572 ft | 231 kts | 85° |
| 2026-04-27 11:05 | 37.44782 | 14.84413 | 3275 ft | 224 kts | 85° |
| 2026-04-27 11:05 | 37.44947 | 14.86329 | 2984 ft | 216 kts | 85° |
| 2026-04-27 11:05 | 37.45106 | 14.88179 | 2728 ft | 207 kts | 86° |
| 2026-04-27 11:06 | 37.45257 | 14.89926 | 2447 ft | 196 kts | 86° |
| 2026-04-27 11:06 | 37.45400 | 14.91595 | 2193 ft | 187 kts | 85° |
| 2026-04-27 11:06 | 37.45534 | 14.93166 | 1946 ft | 175 kts | 86° |
| 2026-04-27 11:06 | 37.45660 | 14.94635 | 1705 ft | 161 kts | 85° |
| 2026-04-27 11:07 | 37.45776 | 14.95988 | 1525 ft | 148 kts | 86° |
| 2026-04-27 11:07 | 37.45883 | 14.97243 | 1320 ft | 141 kts | 86° |
| 2026-04-27 11:07 | 37.45985 | 14.98455 | 1154 ft | 139 kts | 86° |
| 2026-04-27 11:07 | 37.46087 | 14.99658 | 974 ft | 137 kts | 87° |
| 2026-04-27 11:08 | 37.46187 | 15.00834 | 809 ft | 134 kts | 85° |
| 2026-04-27 11:08 | 37.46285 | 15.01992 | 635 ft | 133 kts | 86° |
| 2026-04-27 11:08 | 37.46382 | 15.03128 | 445 ft | 132 kts | 85° |
| 2026-04-27 11:08 | 37.46479 | 15.04298 | 305 ft | 134 kts | 83° |
| 2026-04-27 11:09 | 37.46575 | 15.05501 | 101 ft | 138 kts | 82° |
| 2026-04-27 11:09 | 37.46684 | 15.06613 | 29 ft | 104 kts | 85° |
| 2026-04-27 11:09 | 37.46720 | 15.07143 | 25 ft | 18 kts | 85° |
| 2026-04-27 11:09 | 37.46736 | 15.07381 | 30 ft | 45 kts | 85° |
| 2026-04-27 11:10 | 37.46763 | 15.07580 | 24 ft | 0 kts | 74° |
| 2026-04-27 11:10 | 37.46813 | 15.07680 | 27 ft | 18 kts | 37° |
| 2026-04-27 11:11 | 37.46866 | 15.07780 | 24 ft | 15 kts | 51° |
| 2026-04-27 11:11 | 37.46930 | 15.07746 | 25 ft | 11 kts | 282° |
| 2026-04-27 11:11 | 37.46932 | 15.07701 | 26 ft | 0 kts | 268° |
| 2026-04-27 11:12 | 37.46932 | 15.07695 | 26 ft | 3 kts | 268° |
| 2026-04-27 11:12 | 37.46929 | 15.07659 | 27 ft | 5 kts | 263° |
| 2026-04-27 11:13 | 37.46925 | 15.07616 | 27 ft | 5 kts | 264° |
| 2026-04-27 11:13 | 37.46922 | 15.07585 | 27 ft | 6 kts | 264° |
| 2026-04-27 11:13 | 37.46918 | 15.07517 | 27 ft | 7 kts | 265° |
| 2026-04-27 11:13 | 37.46913 | 15.07452 | 27 ft | 8 kts | 265° |
| 2026-04-27 11:14 | 37.46910 | 15.07409 | 27 ft | 7 kts | 263° |
| 2026-04-27 11:14 | 37.46904 | 15.07349 | 27 ft | 6 kts | 263° |
| 2026-04-27 11:14 | 37.46899 | 15.07299 | 28 ft | 6 kts | 263° |
| 2026-04-27 11:14 | 37.46894 | 15.07243 | 29 ft | 8 kts | 264° |
| 2026-04-27 11:15 | 37.46888 | 15.07156 | 29 ft | 12 kts | 263° |
| 2026-04-27 11:15 | 37.46878 | 15.07034 | 27 ft | 13 kts | 266° |
| 2026-04-27 11:15 | 37.46877 | 15.07014 | 29 ft | 6 kts | 264° |
| 2026-04-27 11:15 | 37.46867 | 15.06913 | 25 ft | 14 kts | 263° |
| 2026-04-27 11:16 | 37.46857 | 15.06784 | 26 ft | 14 kts | 264° |
| 2026-04-27 11:16 | 37.46848 | 15.06668 | 28 ft | 13 kts | 264° |
| 2026-04-27 11:16 | 37.46856 | 15.06569 | 27 ft | 11 kts | 317° |
| 2026-04-27 11:16 | 37.46931 | 15.06573 | 26 ft | 7 kts | 16° |
| 2026-04-27 11:17 | 37.46938 | 15.06575 | 26 ft | 0 kts | 17° |